sensor_id;sensor_type;location;lat;lon;timestamp;P1;durP1;ratioP1;P2;durP2;ratioP2
28343;SDS011;15597;50.914;6.638;2023-08-12T00:00:01;11.63;;;6.57;;
28343;SDS011;15597;50.914;6.638;2023-08-12T00:02:34;17.40;;;6.80;;
28343;SDS011;15597;50.914;6.638;2023-08-12T00:05:00;5.72;;;3.35;;
28343;SDS011;15597;50.914;6.638;2023-08-12T00:07:25;8.32;;;5.03;;
28343;SDS011;15597;50.914;6.638;2023-08-12T00:09:51;6.95;;;3.95;;
28343;SDS011;15597;50.914;6.638;2023-08-12T00:12:16;5.05;;;2.50;;
28343;SDS011;15597;50.914;6.638;2023-08-12T00:14:42;9.20;;;3.97;;
28343;SDS011;15597;50.914;6.638;2023-08-12T00:17:07;6.13;;;3.05;;
28343;SDS011;15597;50.914;6.638;2023-08-12T00:19:33;7.95;;;4.72;;
28343;SDS011;15597;50.914;6.638;2023-08-12T00:21:58;9.35;;;5.60;;
28343;SDS011;15597;50.914;6.638;2023-08-12T00:24:24;7.90;;;4.45;;
28343;SDS011;15597;50.914;6.638;2023-08-12T00:26:49;13.05;;;7.10;;
28343;SDS011;15597;50.914;6.638;2023-08-12T00:29:15;10.43;;;6.75;;
28343;SDS011;15597;50.914;6.638;2023-08-12T00:31:40;10.38;;;6.47;;
28343;SDS011;15597;50.914;6.638;2023-08-12T00:34:06;5.82;;;3.50;;
28343;SDS011;15597;50.914;6.638;2023-08-12T00:36:31;10.77;;;6.55;;
28343;SDS011;15597;50.914;6.638;2023-08-12T00:38:57;9.35;;;6.25;;
28343;SDS011;15597;50.914;6.638;2023-08-12T00:41:22;11.25;;;5.80;;
28343;SDS011;15597;50.914;6.638;2023-08-12T00:43:48;9.70;;;6.38;;
28343;SDS011;15597;50.914;6.638;2023-08-12T00:46:13;6.93;;;3.13;;
28343;SDS011;15597;50.914;6.638;2023-08-12T00:48:40;6.32;;;4.03;;
28343;SDS011;15597;50.914;6.638;2023-08-12T00:51:05;6.35;;;3.30;;
28343;SDS011;15597;50.914;6.638;2023-08-12T00:53:31;10.70;;;6.38;;
28343;SDS011;15597;50.914;6.638;2023-08-12T00:55:58;13.63;;;7.65;;
28343;SDS011;15597;50.914;6.638;2023-08-12T00:58:23;10.88;;;7.07;;
28343;SDS011;15597;50.914;6.638;2023-08-12T01:00:49;11.25;;;7.05;;
28343;SDS011;15597;50.914;6.638;2023-08-12T01:03:17;9.43;;;6.50;;
28343;SDS011;15597;50.914;6.638;2023-08-12T01:05:42;12.23;;;7.75;;
28343;SDS011;15597;50.914;6.638;2023-08-12T01:08:09;14.35;;;7.68;;
28343;SDS011;15597;50.914;6.638;2023-08-12T01:10:35;6.40;;;3.88;;
28343;SDS011;15597;50.914;6.638;2023-08-12T01:15:35;12.10;;;8.02;;
28343;SDS011;15597;50.914;6.638;2023-08-12T01:18:01;11.63;;;7.40;;
28343;SDS011;15597;50.914;6.638;2023-08-12T01:20:29;10.13;;;4.20;;
28343;SDS011;15597;50.914;6.638;2023-08-12T01:22:56;12.52;;;6.97;;
28343;SDS011;15597;50.914;6.638;2023-08-12T01:25:26;12.88;;;8.68;;
28343;SDS011;15597;50.914;6.638;2023-08-12T01:27:52;13.80;;;9.15;;
28343;SDS011;15597;50.914;6.638;2023-08-12T01:30:18;12.77;;;9.25;;
28343;SDS011;15597;50.914;6.638;2023-08-12T01:32:47;9.27;;;5.93;;
28343;SDS011;15597;50.914;6.638;2023-08-12T01:35:53;11.38;;;6.85;;
28343;SDS011;15597;50.914;6.638;2023-08-12T01:38:15;12.57;;;8.75;;
28343;SDS011;15597;50.914;6.638;2023-08-12T01:43:09;7.72;;;5.75;;
28343;SDS011;15597;50.914;6.638;2023-08-12T01:45:35;7.65;;;4.22;;
28343;SDS011;15597;50.914;6.638;2023-08-12T01:48:01;12.50;;;8.27;;
28343;SDS011;15597;50.914;6.638;2023-08-12T01:50:27;9.43;;;5.40;;
28343;SDS011;15597;50.914;6.638;2023-08-12T01:52:52;11.30;;;8.40;;
28343;SDS011;15597;50.914;6.638;2023-08-12T01:55:18;10.77;;;7.57;;
28343;SDS011;15597;50.914;6.638;2023-08-12T01:57:43;13.18;;;9.23;;
28343;SDS011;15597;50.914;6.638;2023-08-12T02:00:09;13.23;;;9.30;;
28343;SDS011;15597;50.914;6.638;2023-08-12T02:02:44;14.80;;;8.65;;
28343;SDS011;15597;50.914;6.638;2023-08-12T02:05:11;9.65;;;6.43;;
28343;SDS011;15597;50.914;6.638;2023-08-12T02:07:38;13.57;;;9.00;;
28343;SDS011;15597;50.914;6.638;2023-08-12T02:10:03;16.75;;;8.55;;
28343;SDS011;15597;50.914;6.638;2023-08-12T02:12:30;12.45;;;7.53;;
28343;SDS011;15597;50.914;6.638;2023-08-12T02:14:56;16.52;;;10.00;;
28343;SDS011;15597;50.914;6.638;2023-08-12T02:17:22;5.07;;;3.20;;
28343;SDS011;15597;50.914;6.638;2023-08-12T02:19:50;14.52;;;8.27;;
28343;SDS011;15597;50.914;6.638;2023-08-12T02:22:16;14.50;;;8.90;;
28343;SDS011;15597;50.914;6.638;2023-08-12T02:24:41;12.82;;;8.13;;
28343;SDS011;15597;50.914;6.638;2023-08-12T02:27:07;6.70;;;3.30;;
28343;SDS011;15597;50.914;6.638;2023-08-12T02:29:32;12.30;;;8.15;;
28343;SDS011;15597;50.914;6.638;2023-08-12T02:31:58;10.52;;;6.07;;
28343;SDS011;15597;50.914;6.638;2023-08-12T02:34:24;8.80;;;5.70;;
28343;SDS011;15597;50.914;6.638;2023-08-12T02:36:50;6.25;;;3.85;;
28343;SDS011;15597;50.914;6.638;2023-08-12T02:39:16;16.40;;;9.57;;
28343;SDS011;15597;50.914;6.638;2023-08-12T02:41:41;17.40;;;10.35;;
28343;SDS011;15597;50.914;6.638;2023-08-12T02:44:07;11.15;;;8.43;;
28343;SDS011;15597;50.914;6.638;2023-08-12T02:46:33;9.38;;;6.22;;
28343;SDS011;15597;50.914;6.638;2023-08-12T02:48:58;14.40;;;8.15;;
28343;SDS011;15597;50.914;6.638;2023-08-12T02:51:24;8.68;;;4.47;;
28343;SDS011;15597;50.914;6.638;2023-08-12T02:53:49;10.77;;;6.25;;
28343;SDS011;15597;50.914;6.638;2023-08-12T02:56:15;11.13;;;7.75;;
28343;SDS011;15597;50.914;6.638;2023-08-12T02:58:40;11.65;;;7.57;;
28343;SDS011;15597;50.914;6.638;2023-08-12T03:01:06;11.27;;;5.85;;
28343;SDS011;15597;50.914;6.638;2023-08-12T03:03:32;5.63;;;3.17;;
28343;SDS011;15597;50.914;6.638;2023-08-12T03:05:57;5.60;;;3.13;;
28343;SDS011;15597;50.914;6.638;2023-08-12T03:08:24;8.90;;;4.40;;
28343;SDS011;15597;50.914;6.638;2023-08-12T03:10:50;8.90;;;5.40;;
28343;SDS011;15597;50.914;6.638;2023-08-12T03:13:16;5.20;;;2.88;;
28343;SDS011;15597;50.914;6.638;2023-08-12T03:15:42;5.75;;;2.90;;
28343;SDS011;15597;50.914;6.638;2023-08-12T03:18:08;9.30;;;4.93;;
28343;SDS011;15597;50.914;6.638;2023-08-12T03:20:34;6.68;;;4.30;;
28343;SDS011;15597;50.914;6.638;2023-08-12T03:23:01;9.65;;;6.00;;
28343;SDS011;15597;50.914;6.638;2023-08-12T03:25:28;12.25;;;5.95;;
28343;SDS011;15597;50.914;6.638;2023-08-12T03:27:54;10.25;;;6.32;;
28343;SDS011;15597;50.914;6.638;2023-08-12T03:30:20;11.93;;;6.75;;
28343;SDS011;15597;50.914;6.638;2023-08-12T03:32:47;9.23;;;5.78;;
28343;SDS011;15597;50.914;6.638;2023-08-12T03:35:13;10.40;;;5.15;;
28343;SDS011;15597;50.914;6.638;2023-08-12T03:37:39;7.15;;;4.72;;
28343;SDS011;15597;50.914;6.638;2023-08-12T03:40:04;5.20;;;3.42;;
28343;SDS011;15597;50.914;6.638;2023-08-12T03:42:31;9.13;;;5.93;;
28343;SDS011;15597;50.914;6.638;2023-08-12T03:45:00;10.07;;;6.53;;
28343;SDS011;15597;50.914;6.638;2023-08-12T03:47:26;11.82;;;7.18;;
28343;SDS011;15597;50.914;6.638;2023-08-12T03:49:52;14.45;;;6.95;;
28343;SDS011;15597;50.914;6.638;2023-08-12T03:52:17;9.63;;;5.15;;
28343;SDS011;15597;50.914;6.638;2023-08-12T03:54:43;11.10;;;7.05;;
28343;SDS011;15597;50.914;6.638;2023-08-12T03:57:10;9.77;;;5.85;;
28343;SDS011;15597;50.914;6.638;2023-08-12T03:59:36;9.25;;;5.40;;
28343;SDS011;15597;50.914;6.638;2023-08-12T04:02:02;5.53;;;2.95;;
28343;SDS011;15597;50.914;6.638;2023-08-12T04:04:29;12.48;;;6.47;;
28343;SDS011;15597;50.914;6.638;2023-08-12T04:06:54;8.18;;;4.85;;
28343;SDS011;15597;50.914;6.638;2023-08-12T04:09:20;10.40;;;6.72;;
28343;SDS011;15597;50.914;6.638;2023-08-12T04:11:46;9.63;;;5.10;;
28343;SDS011;15597;50.914;6.638;2023-08-12T04:14:12;7.85;;;4.40;;
28343;SDS011;15597;50.914;6.638;2023-08-12T04:16:39;10.10;;;5.00;;
28343;SDS011;15597;50.914;6.638;2023-08-12T04:19:04;7.15;;;4.07;;
28343;SDS011;15597;50.914;6.638;2023-08-12T04:21:32;8.48;;;6.03;;
28343;SDS011;15597;50.914;6.638;2023-08-12T04:23:58;10.75;;;6.63;;
28343;SDS011;15597;50.914;6.638;2023-08-12T04:26:24;10.25;;;7.00;;
28343;SDS011;15597;50.914;6.638;2023-08-12T04:28:50;14.45;;;9.07;;
28343;SDS011;15597;50.914;6.638;2023-08-12T04:31:16;9.80;;;5.70;;
28343;SDS011;15597;50.914;6.638;2023-08-12T04:33:42;7.07;;;3.97;;
28343;SDS011;15597;50.914;6.638;2023-08-12T04:36:08;10.65;;;6.63;;
28343;SDS011;15597;50.914;6.638;2023-08-12T04:38:34;15.77;;;8.90;;
28343;SDS011;15597;50.914;6.638;2023-08-12T04:41:02;12.10;;;7.70;;
28343;SDS011;15597;50.914;6.638;2023-08-12T04:43:28;11.88;;;7.32;;
28343;SDS011;15597;50.914;6.638;2023-08-12T04:45:53;9.75;;;6.25;;
28343;SDS011;15597;50.914;6.638;2023-08-12T04:48:19;16.27;;;10.05;;
28343;SDS011;15597;50.914;6.638;2023-08-12T04:50:45;5.55;;;3.10;;
28343;SDS011;15597;50.914;6.638;2023-08-12T04:53:10;11.60;;;6.53;;
28343;SDS011;15597;50.914;6.638;2023-08-12T04:55:36;12.85;;;8.05;;
28343;SDS011;15597;50.914;6.638;2023-08-12T04:58:02;14.80;;;10.10;;
28343;SDS011;15597;50.914;6.638;2023-08-12T05:00:28;15.27;;;10.15;;
28343;SDS011;15597;50.914;6.638;2023-08-12T05:02:53;11.25;;;7.40;;
28343;SDS011;15597;50.914;6.638;2023-08-12T05:05:19;10.65;;;6.90;;
28343;SDS011;15597;50.914;6.638;2023-08-12T05:07:45;14.63;;;9.35;;
28343;SDS011;15597;50.914;6.638;2023-08-12T05:10:17;17.20;;;11.30;;
28343;SDS011;15597;50.914;6.638;2023-08-12T05:12:43;8.85;;;3.97;;
28343;SDS011;15597;50.914;6.638;2023-08-12T05:15:09;13.85;;;9.38;;
28343;SDS011;15597;50.914;6.638;2023-08-12T05:17:35;7.22;;;3.78;;
28343;SDS011;15597;50.914;6.638;2023-08-12T05:20:01;9.57;;;6.45;;
28343;SDS011;15597;50.914;6.638;2023-08-12T05:22:27;9.98;;;7.07;;
28343;SDS011;15597;50.914;6.638;2023-08-12T05:24:52;15.45;;;8.68;;
28343;SDS011;15597;50.914;6.638;2023-08-12T05:27:18;5.40;;;3.20;;
28343;SDS011;15597;50.914;6.638;2023-08-12T05:29:43;15.02;;;9.27;;
28343;SDS011;15597;50.914;6.638;2023-08-12T05:32:09;10.63;;;6.65;;
28343;SDS011;15597;50.914;6.638;2023-08-12T05:34:34;8.95;;;6.32;;
28343;SDS011;15597;50.914;6.638;2023-08-12T05:37:00;6.47;;;3.63;;
28343;SDS011;15597;50.914;6.638;2023-08-12T05:39:26;10.15;;;7.18;;
28343;SDS011;15597;50.914;6.638;2023-08-12T05:41:51;8.48;;;4.65;;
28343;SDS011;15597;50.914;6.638;2023-08-12T05:44:17;13.02;;;7.68;;
28343;SDS011;15597;50.914;6.638;2023-08-12T05:46:43;12.38;;;7.72;;
28343;SDS011;15597;50.914;6.638;2023-08-12T05:49:08;7.80;;;5.03;;
28343;SDS011;15597;50.914;6.638;2023-08-12T05:51:34;14.05;;;7.32;;
28343;SDS011;15597;50.914;6.638;2023-08-12T05:54:00;7.38;;;4.82;;
28343;SDS011;15597;50.914;6.638;2023-08-12T05:56:25;6.57;;;3.20;;
28343;SDS011;15597;50.914;6.638;2023-08-12T05:58:51;10.15;;;6.25;;
28343;SDS011;15597;50.914;6.638;2023-08-12T06:01:17;8.80;;;4.60;;
28343;SDS011;15597;50.914;6.638;2023-08-12T06:03:44;8.30;;;4.78;;
28343;SDS011;15597;50.914;6.638;2023-08-12T06:06:09;6.07;;;3.00;;
28343;SDS011;15597;50.914;6.638;2023-08-12T06:08:35;9.38;;;5.55;;
28343;SDS011;15597;50.914;6.638;2023-08-12T06:11:01;7.30;;;4.28;;
28343;SDS011;15597;50.914;6.638;2023-08-12T06:13:26;7.85;;;3.78;;
28343;SDS011;15597;50.914;6.638;2023-08-12T06:15:52;5.63;;;3.38;;
28343;SDS011;15597;50.914;6.638;2023-08-12T06:18:18;5.00;;;2.97;;
28343;SDS011;15597;50.914;6.638;2023-08-12T06:20:43;7.80;;;3.53;;
28343;SDS011;15597;50.914;6.638;2023-08-12T06:23:09;6.95;;;3.00;;
28343;SDS011;15597;50.914;6.638;2023-08-12T06:25:34;4.97;;;2.75;;
28343;SDS011;15597;50.914;6.638;2023-08-12T06:28:01;5.05;;;2.47;;
28343;SDS011;15597;50.914;6.638;2023-08-12T06:30:29;7.47;;;3.80;;
28343;SDS011;15597;50.914;6.638;2023-08-12T06:32:55;6.75;;;3.30;;
28343;SDS011;15597;50.914;6.638;2023-08-12T06:35:21;7.43;;;2.40;;
28343;SDS011;15597;50.914;6.638;2023-08-12T06:37:47;5.35;;;2.65;;
28343;SDS011;15597;50.914;6.638;2023-08-12T06:40:12;4.40;;;2.35;;
28343;SDS011;15597;50.914;6.638;2023-08-12T06:42:38;4.50;;;2.38;;
28343;SDS011;15597;50.914;6.638;2023-08-12T06:45:03;6.68;;;2.80;;
28343;SDS011;15597;50.914;6.638;2023-08-12T06:47:30;4.85;;;2.40;;
28343;SDS011;15597;50.914;6.638;2023-08-12T06:49:55;4.95;;;2.30;;
28343;SDS011;15597;50.914;6.638;2023-08-12T06:52:21;4.35;;;2.53;;
28343;SDS011;15597;50.914;6.638;2023-08-12T06:54:47;4.47;;;2.40;;
28343;SDS011;15597;50.914;6.638;2023-08-12T06:57:12;5.70;;;2.75;;
28343;SDS011;15597;50.914;6.638;2023-08-12T06:59:38;5.22;;;3.00;;
28343;SDS011;15597;50.914;6.638;2023-08-12T07:02:04;3.75;;;2.30;;
28343;SDS011;15597;50.914;6.638;2023-08-12T07:04:32;4.60;;;2.30;;
28343;SDS011;15597;50.914;6.638;2023-08-12T07:06:57;6.55;;;2.95;;
28343;SDS011;15597;50.914;6.638;2023-08-12T07:09:23;4.78;;;2.70;;
28343;SDS011;15597;50.914;6.638;2023-08-12T07:11:48;5.30;;;2.60;;
28343;SDS011;15597;50.914;6.638;2023-08-12T07:14:14;4.88;;;2.78;;
28343;SDS011;15597;50.914;6.638;2023-08-12T07:16:39;3.90;;;1.90;;
28343;SDS011;15597;50.914;6.638;2023-08-12T07:19:05;5.90;;;2.50;;
28343;SDS011;15597;50.914;6.638;2023-08-12T07:21:31;4.50;;;2.47;;
28343;SDS011;15597;50.914;6.638;2023-08-12T07:23:56;6.20;;;2.60;;
28343;SDS011;15597;50.914;6.638;2023-08-12T07:26:22;4.82;;;2.25;;
28343;SDS011;15597;50.914;6.638;2023-08-12T07:28:47;4.00;;;2.30;;
28343;SDS011;15597;50.914;6.638;2023-08-12T07:31:13;6.63;;;2.40;;
28343;SDS011;15597;50.914;6.638;2023-08-12T07:33:39;4.80;;;2.40;;
28343;SDS011;15597;50.914;6.638;2023-08-12T07:36:04;3.42;;;1.85;;
28343;SDS011;15597;50.914;6.638;2023-08-12T07:38:30;4.63;;;2.17;;
28343;SDS011;15597;50.914;6.638;2023-08-12T07:40:58;4.30;;;2.28;;
28343;SDS011;15597;50.914;6.638;2023-08-12T07:43:23;4.65;;;2.28;;
28343;SDS011;15597;50.914;6.638;2023-08-12T07:45:52;5.15;;;2.10;;
28343;SDS011;15597;50.914;6.638;2023-08-12T07:48:19;4.68;;;2.00;;
28343;SDS011;15597;50.914;6.638;2023-08-12T07:50:45;4.05;;;1.80;;
28343;SDS011;15597;50.914;6.638;2023-08-12T07:53:10;5.35;;;2.00;;
28343;SDS011;15597;50.914;6.638;2023-08-12T07:55:36;3.85;;;2.10;;
28343;SDS011;15597;50.914;6.638;2023-08-12T07:58:01;5.22;;;2.05;;
28343;SDS011;15597;50.914;6.638;2023-08-12T08:00:27;3.53;;;1.67;;
28343;SDS011;15597;50.914;6.638;2023-08-12T08:02:53;4.20;;;1.80;;
28343;SDS011;15597;50.914;6.638;2023-08-12T08:05:19;3.58;;;1.85;;
28343;SDS011;15597;50.914;6.638;2023-08-12T08:07:44;3.97;;;1.80;;
28343;SDS011;15597;50.914;6.638;2023-08-12T08:10:10;4.25;;;2.13;;
28343;SDS011;15597;50.914;6.638;2023-08-12T08:12:36;4.50;;;1.80;;
28343;SDS011;15597;50.914;6.638;2023-08-12T08:15:01;4.28;;;2.15;;
28343;SDS011;15597;50.914;6.638;2023-08-12T08:17:28;3.70;;;2.00;;
28343;SDS011;15597;50.914;6.638;2023-08-12T08:19:54;3.40;;;1.80;;
28343;SDS011;15597;50.914;6.638;2023-08-12T08:22:20;4.07;;;2.00;;
28343;SDS011;15597;50.914;6.638;2023-08-12T08:24:46;4.00;;;1.77;;
28343;SDS011;15597;50.914;6.638;2023-08-12T08:27:12;4.32;;;1.83;;
28343;SDS011;15597;50.914;6.638;2023-08-12T08:29:38;3.47;;;1.40;;
28343;SDS011;15597;50.914;6.638;2023-08-12T08:32:04;3.40;;;1.55;;
28343;SDS011;15597;50.914;6.638;2023-08-12T08:34:30;3.90;;;2.20;;
28343;SDS011;15597;50.914;6.638;2023-08-12T08:36:56;3.50;;;1.70;;
28343;SDS011;15597;50.914;6.638;2023-08-12T08:39:22;4.40;;;1.90;;
28343;SDS011;15597;50.914;6.638;2023-08-12T08:41:48;2.63;;;1.40;;
28343;SDS011;15597;50.914;6.638;2023-08-12T08:44:14;3.90;;;1.38;;
28343;SDS011;15597;50.914;6.638;2023-08-12T08:46:43;3.10;;;1.55;;
28343;SDS011;15597;50.914;6.638;2023-08-12T08:49:10;4.38;;;1.33;;
28343;SDS011;15597;50.914;6.638;2023-08-12T08:51:37;2.97;;;1.30;;
28343;SDS011;15597;50.914;6.638;2023-08-12T08:54:03;3.45;;;1.63;;
28343;SDS011;15597;50.914;6.638;2023-08-12T08:56:33;4.00;;;1.90;;
28343;SDS011;15597;50.914;6.638;2023-08-12T08:58:59;3.50;;;1.70;;
28343;SDS011;15597;50.914;6.638;2023-08-12T09:01:26;5.88;;;1.65;;
28343;SDS011;15597;50.914;6.638;2023-08-12T09:03:54;3.63;;;1.63;;
28343;SDS011;15597;50.914;6.638;2023-08-12T09:06:21;6.45;;;1.50;;
28343;SDS011;15597;50.914;6.638;2023-08-12T09:08:50;3.30;;;1.27;;
28343;SDS011;15597;50.914;6.638;2023-08-12T09:11:17;4.88;;;1.50;;
28343;SDS011;15597;50.914;6.638;2023-08-12T09:13:44;3.70;;;1.48;;
28343;SDS011;15597;50.914;6.638;2023-08-12T09:16:10;3.25;;;1.20;;
28343;SDS011;15597;50.914;6.638;2023-08-12T09:18:37;3.60;;;1.70;;
28343;SDS011;15597;50.914;6.638;2023-08-12T09:21:03;3.13;;;1.50;;
28343;SDS011;15597;50.914;6.638;2023-08-12T09:23:37;3.08;;;1.30;;
28343;SDS011;15597;50.914;6.638;2023-08-12T09:26:17;3.47;;;1.15;;
28343;SDS011;15597;50.914;6.638;2023-08-12T09:28:44;3.60;;;1.70;;
28343;SDS011;15597;50.914;6.638;2023-08-12T09:31:24;3.90;;;1.40;;
28343;SDS011;15597;50.914;6.638;2023-08-12T09:33:52;3.13;;;1.60;;
28343;SDS011;15597;50.914;6.638;2023-08-12T09:36:18;3.88;;;1.83;;
28343;SDS011;15597;50.914;6.638;2023-08-12T09:38:46;3.67;;;1.00;;
28343;SDS011;15597;50.914;6.638;2023-08-12T09:41:12;3.03;;;1.27;;
28343;SDS011;15597;50.914;6.638;2023-08-12T09:43:41;3.38;;;1.02;;
28343;SDS011;15597;50.914;6.638;2023-08-12T09:46:11;3.65;;;1.40;;
28343;SDS011;15597;50.914;6.638;2023-08-12T09:48:40;3.85;;;1.67;;
28343;SDS011;15597;50.914;6.638;2023-08-12T09:51:06;3.42;;;1.50;;
28343;SDS011;15597;50.914;6.638;2023-08-12T09:53:33;3.70;;;1.35;;
28343;SDS011;15597;50.914;6.638;2023-08-12T09:56:06;6.05;;;1.80;;
28343;SDS011;15597;50.914;6.638;2023-08-12T09:58:36;3.28;;;1.50;;
28343;SDS011;15597;50.914;6.638;2023-08-12T10:01:02;3.60;;;1.23;;
28343;SDS011;15597;50.914;6.638;2023-08-12T10:03:30;3.58;;;1.52;;
28343;SDS011;15597;50.914;6.638;2023-08-12T10:05:58;4.60;;;1.35;;
28343;SDS011;15597;50.914;6.638;2023-08-12T10:08:26;2.58;;;1.15;;
28343;SDS011;15597;50.914;6.638;2023-08-12T10:10:52;3.50;;;1.80;;
28343;SDS011;15597;50.914;6.638;2023-08-12T10:13:19;3.45;;;1.58;;
28343;SDS011;15597;50.914;6.638;2023-08-12T10:15:45;3.85;;;1.67;;
28343;SDS011;15597;50.914;6.638;2023-08-12T10:18:12;3.17;;;1.35;;
28343;SDS011;15597;50.914;6.638;2023-08-12T10:20:39;3.90;;;1.35;;
28343;SDS011;15597;50.914;6.638;2023-08-12T10:23:05;4.20;;;1.50;;
28343;SDS011;15597;50.914;6.638;2023-08-12T10:25:32;4.25;;;1.70;;
28343;SDS011;15597;50.914;6.638;2023-08-12T10:28:00;3.75;;;1.48;;
28343;SDS011;15597;50.914;6.638;2023-08-12T10:30:30;3.00;;;1.35;;
28343;SDS011;15597;50.914;6.638;2023-08-12T10:32:56;2.83;;;1.00;;
28343;SDS011;15597;50.914;6.638;2023-08-12T10:35:23;5.60;;;1.00;;
28343;SDS011;15597;50.914;6.638;2023-08-12T10:37:49;2.60;;;1.20;;
28343;SDS011;15597;50.914;6.638;2023-08-12T10:40:19;3.63;;;1.20;;
28343;SDS011;15597;50.914;6.638;2023-08-12T10:42:47;2.97;;;1.20;;
28343;SDS011;15597;50.914;6.638;2023-08-12T10:45:15;5.15;;;1.67;;
28343;SDS011;15597;50.914;6.638;2023-08-12T10:47:42;3.75;;;1.20;;
28343;SDS011;15597;50.914;6.638;2023-08-12T10:50:20;2.28;;;1.08;;
28343;SDS011;15597;50.914;6.638;2023-08-12T10:52:51;2.83;;;1.17;;
28343;SDS011;15597;50.914;6.638;2023-08-12T10:57:51;4.18;;;1.35;;
28343;SDS011;15597;50.914;6.638;2023-08-12T11:00:19;4.13;;;1.30;;
28343;SDS011;15597;50.914;6.638;2023-08-12T11:02:55;2.83;;;1.20;;
28343;SDS011;15597;50.914;6.638;2023-08-12T11:05:22;2.78;;;1.10;;
28343;SDS011;15597;50.914;6.638;2023-08-12T11:10:23;2.83;;;1.13;;
28343;SDS011;15597;50.914;6.638;2023-08-12T11:15:16;2.70;;;0.90;;
28343;SDS011;15597;50.914;6.638;2023-08-12T11:17:42;2.10;;;1.00;;
28343;SDS011;15597;50.914;6.638;2023-08-12T11:20:09;3.00;;;1.20;;
28343;SDS011;15597;50.914;6.638;2023-08-12T11:22:43;4.63;;;1.40;;
28343;SDS011;15597;50.914;6.638;2023-08-12T11:25:09;2.65;;;1.02;;
28343;SDS011;15597;50.914;6.638;2023-08-12T11:27:37;3.40;;;1.10;;
28343;SDS011;15597;50.914;6.638;2023-08-12T11:30:06;4.07;;;1.10;;
28343;SDS011;15597;50.914;6.638;2023-08-12T11:32:34;2.97;;;1.20;;
28343;SDS011;15597;50.914;6.638;2023-08-12T11:34:59;3.17;;;1.10;;
28343;SDS011;15597;50.914;6.638;2023-08-12T11:37:26;2.67;;;1.05;;
28343;SDS011;15597;50.914;6.638;2023-08-12T11:39:52;3.92;;;1.30;;
28343;SDS011;15597;50.914;6.638;2023-08-12T11:42:18;2.60;;;1.20;;
28343;SDS011;15597;50.914;6.638;2023-08-12T11:44:43;4.63;;;1.42;;
28343;SDS011;15597;50.914;6.638;2023-08-12T11:47:09;6.18;;;1.35;;
28343;SDS011;15597;50.914;6.638;2023-08-12T11:49:34;4.22;;;1.90;;
28343;SDS011;15597;50.914;6.638;2023-08-12T11:52:00;3.25;;;1.40;;
28343;SDS011;15597;50.914;6.638;2023-08-12T11:54:25;3.90;;;1.40;;
28343;SDS011;15597;50.914;6.638;2023-08-12T11:56:52;3.28;;;1.35;;
28343;SDS011;15597;50.914;6.638;2023-08-12T11:59:17;4.53;;;1.20;;
28343;SDS011;15597;50.914;6.638;2023-08-12T12:01:46;3.80;;;1.23;;
28343;SDS011;15597;50.914;6.638;2023-08-12T12:04:14;3.88;;;1.20;;
28343;SDS011;15597;50.914;6.638;2023-08-12T12:06:41;3.17;;;1.35;;
28343;SDS011;15597;50.914;6.638;2023-08-12T12:09:07;2.75;;;1.20;;
28343;SDS011;15597;50.914;6.638;2023-08-12T12:11:38;2.80;;;1.02;;
28343;SDS011;15597;50.914;6.638;2023-08-12T12:14:05;3.53;;;1.27;;
28343;SDS011;15597;50.914;6.638;2023-08-12T12:16:39;5.13;;;1.52;;
28343;SDS011;15597;50.914;6.638;2023-08-12T12:19:19;3.78;;;1.33;;
28343;SDS011;15597;50.914;6.638;2023-08-12T12:21:47;3.58;;;1.10;;
28343;SDS011;15597;50.914;6.638;2023-08-12T12:24:14;4.38;;;1.30;;
28343;SDS011;15597;50.914;6.638;2023-08-12T12:26:40;3.08;;;1.10;;
28343;SDS011;15597;50.914;6.638;2023-08-12T12:29:06;3.20;;;1.30;;
28343;SDS011;15597;50.914;6.638;2023-08-12T12:31:33;4.75;;;1.00;;
28343;SDS011;15597;50.914;6.638;2023-08-12T12:34:00;4.57;;;1.40;;
28343;SDS011;15597;50.914;6.638;2023-08-12T12:36:26;3.28;;;1.20;;
28343;SDS011;15597;50.914;6.638;2023-08-12T12:38:52;4.13;;;1.10;;
28343;SDS011;15597;50.914;6.638;2023-08-12T12:41:18;3.10;;;1.13;;
28343;SDS011;15597;50.914;6.638;2023-08-12T12:43:43;2.40;;;0.93;;
28343;SDS011;15597;50.914;6.638;2023-08-12T12:46:09;3.38;;;1.10;;
28343;SDS011;15597;50.914;6.638;2023-08-12T12:48:34;4.47;;;1.20;;
28343;SDS011;15597;50.914;6.638;2023-08-12T12:51:00;3.35;;;0.80;;
28343;SDS011;15597;50.914;6.638;2023-08-12T12:53:25;4.10;;;0.93;;
28343;SDS011;15597;50.914;6.638;2023-08-12T12:55:51;4.07;;;1.15;;
28343;SDS011;15597;50.914;6.638;2023-08-12T12:58:17;3.75;;;1.40;;
28343;SDS011;15597;50.914;6.638;2023-08-12T13:00:42;3.50;;;1.25;;
28343;SDS011;15597;50.914;6.638;2023-08-12T13:03:08;2.28;;;1.00;;
28343;SDS011;15597;50.914;6.638;2023-08-12T13:05:34;4.20;;;1.27;;
28343;SDS011;15597;50.914;6.638;2023-08-12T13:07:59;3.25;;;1.60;;
28343;SDS011;15597;50.914;6.638;2023-08-12T13:10:25;4.70;;;0.98;;
28343;SDS011;15597;50.914;6.638;2023-08-12T13:12:51;4.28;;;1.58;;
28343;SDS011;15597;50.914;6.638;2023-08-12T13:15:16;3.10;;;0.95;;
28343;SDS011;15597;50.914;6.638;2023-08-12T13:17:42;1.95;;;0.85;;
28343;SDS011;15597;50.914;6.638;2023-08-12T13:20:08;1.55;;;0.70;;
28343;SDS011;15597;50.914;6.638;2023-08-12T13:22:35;2.08;;;0.90;;
28343;SDS011;15597;50.914;6.638;2023-08-12T13:25:00;2.60;;;1.00;;
28343;SDS011;15597;50.914;6.638;2023-08-12T13:27:27;3.55;;;1.20;;
28343;SDS011;15597;50.914;6.638;2023-08-12T13:29:53;2.85;;;1.00;;
28343;SDS011;15597;50.914;6.638;2023-08-12T13:32:18;2.22;;;0.95;;
28343;SDS011;15597;50.914;6.638;2023-08-12T13:34:44;2.88;;;1.25;;
28343;SDS011;15597;50.914;6.638;2023-08-12T13:37:11;3.17;;;1.30;;
28343;SDS011;15597;50.914;6.638;2023-08-12T13:39:37;3.22;;;1.15;;
28343;SDS011;15597;50.914;6.638;2023-08-12T13:42:03;2.00;;;0.90;;
28343;SDS011;15597;50.914;6.638;2023-08-12T13:44:28;1.70;;;0.75;;
28343;SDS011;15597;50.914;6.638;2023-08-12T13:46:54;3.30;;;1.25;;
28343;SDS011;15597;50.914;6.638;2023-08-12T13:49:19;1.98;;;0.63;;
28343;SDS011;15597;50.914;6.638;2023-08-12T13:51:45;2.38;;;1.23;;
28343;SDS011;15597;50.914;6.638;2023-08-12T13:54:11;2.00;;;0.70;;
28343;SDS011;15597;50.914;6.638;2023-08-12T13:56:36;2.45;;;0.80;;
28343;SDS011;15597;50.914;6.638;2023-08-12T13:59:02;2.72;;;0.80;;
28343;SDS011;15597;50.914;6.638;2023-08-12T14:01:28;2.47;;;0.90;;
28343;SDS011;15597;50.914;6.638;2023-08-12T14:03:53;4.47;;;1.00;;
28343;SDS011;15597;50.914;6.638;2023-08-12T14:06:19;3.67;;;1.20;;
28343;SDS011;15597;50.914;6.638;2023-08-12T14:08:45;3.55;;;1.00;;
28343;SDS011;15597;50.914;6.638;2023-08-12T14:11:11;1.85;;;0.80;;
28343;SDS011;15597;50.914;6.638;2023-08-12T14:13:37;2.35;;;1.10;;
28343;SDS011;15597;50.914;6.638;2023-08-12T14:16:02;3.15;;;1.00;;
28343;SDS011;15597;50.914;6.638;2023-08-12T14:18:28;1.83;;;0.80;;
28343;SDS011;15597;50.914;6.638;2023-08-12T14:20:54;2.00;;;0.80;;
28343;SDS011;15597;50.914;6.638;2023-08-12T14:23:19;1.98;;;0.85;;
28343;SDS011;15597;50.914;6.638;2023-08-12T14:25:45;2.15;;;0.60;;
28343;SDS011;15597;50.914;6.638;2023-08-12T14:28:11;2.25;;;1.00;;
28343;SDS011;15597;50.914;6.638;2023-08-12T14:30:36;1.80;;;0.60;;
28343;SDS011;15597;50.914;6.638;2023-08-12T14:33:02;2.05;;;0.80;;
28343;SDS011;15597;50.914;6.638;2023-08-12T14:35:28;2.83;;;1.20;;
28343;SDS011;15597;50.914;6.638;2023-08-12T14:37:54;2.58;;;1.00;;
28343;SDS011;15597;50.914;6.638;2023-08-12T14:40:19;2.60;;;0.98;;
28343;SDS011;15597;50.914;6.638;2023-08-12T14:42:45;2.15;;;0.70;;
28343;SDS011;15597;50.914;6.638;2023-08-12T14:45:10;3.30;;;1.00;;
28343;SDS011;15597;50.914;6.638;2023-08-12T14:47:36;3.22;;;0.82;;
28343;SDS011;15597;50.914;6.638;2023-08-12T14:50:02;2.45;;;0.90;;
28343;SDS011;15597;50.914;6.638;2023-08-12T14:52:29;2.00;;;0.88;;